createdAt,value
2024-02-15T00:01:43.610Z,16.65
2024-02-15T00:04:46.799Z,13.98
2024-02-15T00:07:50.283Z,13.60
2024-02-15T00:10:54.731Z,14.80
2024-02-15T00:13:58.428Z,16.23
2024-02-15T00:17:01.276Z,19.77
2024-02-15T00:20:10.962Z,18.93
2024-02-15T00:23:14.236Z,16.83
2024-02-15T00:26:17.734Z,15.32
2024-02-15T00:29:20.542Z,15.87
2024-02-15T00:32:23.332Z,16.27
2024-02-15T00:35:29.004Z,16.65
2024-02-15T00:38:33.578Z,16.63
2024-02-15T00:41:36.451Z,20.95
2024-02-15T00:44:40.819Z,23.50
2024-02-15T00:47:43.866Z,25.23
2024-02-15T00:50:47.166Z,28.33
2024-02-15T00:53:50.313Z,29.83
2024-02-15T00:56:53.465Z,29.63
2024-02-15T00:59:56.683Z,33.63
2024-02-15T01:03:00.117Z,38.38
2024-02-15T01:06:04.001Z,35.67
2024-02-15T01:09:07.182Z,29.95
2024-02-15T01:12:11.578Z,27.92
2024-02-15T01:15:14.770Z,31.48
2024-02-15T01:18:17.974Z,22.27
2024-02-15T01:21:21.095Z,18.97
2024-02-15T01:24:26.560Z,16.30
2024-02-15T01:27:31.557Z,15.00
2024-02-15T01:30:34.882Z,13.93
2024-02-15T01:33:38.780Z,15.48
2024-02-15T01:36:41.686Z,13.10
2024-02-15T01:39:44.368Z,13.63
2024-02-15T01:42:47.191Z,13.85
2024-02-15T01:45:49.964Z,13.75
2024-02-15T01:48:53.018Z,13.35
2024-02-15T01:51:58.027Z,12.53
2024-02-15T01:55:04.349Z,12.25
2024-02-15T01:58:08.189Z,13.65
2024-02-15T02:01:11.195Z,13.13
2024-02-15T02:04:15.044Z,12.43
2024-02-15T02:07:18.178Z,12.07
2024-02-15T02:10:21.301Z,11.57
2024-02-15T02:13:25.067Z,10.43
2024-02-15T02:16:36.851Z,10.38
2024-02-15T02:19:40.043Z,9.85
2024-02-15T02:22:46.986Z,10.87
2024-02-15T02:25:50.648Z,12.20
2024-02-15T02:28:54.733Z,10.50
2024-02-15T02:31:58.497Z,10.47
2024-02-15T02:35:01.911Z,10.50
2024-02-15T02:38:05.278Z,9.82
2024-02-15T02:41:08.554Z,10.55
2024-02-15T02:44:11.394Z,9.88
2024-02-15T02:47:14.445Z,10.90
2024-02-15T02:50:17.530Z,9.82
2024-02-15T02:53:20.654Z,9.93
2024-02-15T02:56:23.570Z,10.10
2024-02-15T02:59:26.671Z,10.73
2024-02-15T03:02:30.757Z,9.97
2024-02-15T03:05:34.245Z,9.80
2024-02-15T03:08:37.405Z,9.93
2024-02-15T03:11:40.225Z,10.65
2024-02-15T03:14:43.146Z,10.48
2024-02-15T03:17:49.215Z,11.13
2024-02-15T03:20:52.559Z,11.05
2024-02-15T03:23:55.836Z,11.70
2024-02-15T03:26:58.722Z,11.52
2024-02-15T03:30:01.804Z,13.50
2024-02-15T03:33:07.559Z,12.70
2024-02-15T03:36:13.197Z,12.93
2024-02-15T03:39:15.978Z,13.40
2024-02-15T03:42:18.946Z,15.55
2024-02-15T03:45:25.587Z,13.70
2024-02-15T03:48:28.728Z,14.95
2024-02-15T03:51:33.716Z,16.08
2024-02-15T03:54:36.513Z,14.53
2024-02-15T03:57:45.005Z,15.18
2024-02-15T04:00:48.015Z,19.70
2024-02-15T04:03:50.929Z,24.00
2024-02-15T04:06:54.100Z,29.35
2024-02-15T04:09:56.969Z,31.15
2024-02-15T04:13:00.068Z,30.52
2024-02-15T04:16:03.798Z,36.60
2024-02-15T04:19:07.020Z,31.17
2024-02-15T04:22:09.993Z,27.60
2024-02-15T04:25:18.187Z,26.63
2024-02-15T04:28:21.721Z,29.00
2024-02-15T04:31:27.691Z,23.60
2024-02-15T04:34:35.288Z,26.37
2024-02-15T04:37:38.947Z,25.45
2024-02-15T04:40:42.149Z,30.90
2024-02-15T04:43:47.818Z,34.28
2024-02-15T04:46:50.970Z,33.03
2024-02-15T04:49:53.976Z,30.63
2024-02-15T04:52:57.240Z,29.55
2024-02-15T04:56:08.326Z,23.53
2024-02-15T04:59:16.460Z,24.38
2024-02-15T05:02:21.001Z,22.48
2024-02-15T05:05:25.381Z,19.97
2024-02-15T05:08:29.419Z,18.77
2024-02-15T05:11:32.250Z,20.52
2024-02-15T05:14:39.700Z,20.75
2024-02-15T05:17:43.937Z,21.42
2024-02-15T05:20:47.168Z,23.92
2024-02-15T05:23:50.267Z,23.23
2024-02-15T05:26:53.817Z,24.03
2024-02-15T05:29:56.732Z,23.58
2024-02-15T05:33:01.894Z,22.67
2024-02-15T05:36:05.258Z,22.40
2024-02-15T05:39:09.070Z,25.55
2024-02-15T05:42:12.297Z,27.30
2024-02-15T05:45:24.431Z,27.70
2024-02-15T05:48:29.240Z,32.75
2024-02-15T05:51:33.256Z,31.25
2024-02-15T05:54:36.085Z,31.00
2024-02-15T05:57:39.198Z,40.40
2024-02-15T06:00:42.616Z,38.58
2024-02-15T06:03:46.276Z,36.17
2024-02-15T06:06:50.342Z,33.67
2024-02-15T06:09:53.639Z,33.60
2024-02-15T06:12:58.916Z,37.33
2024-02-15T06:16:02.337Z,38.45
2024-02-15T06:19:05.619Z,34.58
2024-02-15T06:22:09.751Z,32.42
2024-02-15T06:25:12.667Z,33.83
2024-02-15T06:28:34.267Z,32.97
2024-02-15T06:31:55.764Z,34.47
2024-02-15T06:35:17.265Z,32.92
2024-02-15T06:38:38.866Z,33.87
2024-02-15T06:41:42.132Z,37.47
2024-02-15T06:44:46.434Z,42.72
2024-02-15T06:47:49.465Z,40.00
2024-02-15T06:50:52.309Z,30.27
2024-02-15T06:53:57.720Z,30.25
2024-02-15T06:57:01.047Z,34.28
2024-02-15T07:00:10.852Z,31.87
2024-02-15T07:03:14.178Z,30.63
2024-02-15T07:06:18.358Z,29.42
2024-02-15T07:09:24.275Z,29.17
2024-02-15T07:12:27.100Z,28.73
2024-02-15T07:15:33.226Z,26.90
2024-02-15T07:18:36.108Z,25.10
2024-02-15T07:21:39.588Z,25.60
2024-02-15T07:24:42.557Z,20.08
2024-02-15T07:27:45.577Z,20.80
2024-02-15T07:30:52.618Z,18.70
2024-02-15T07:33:56.576Z,19.02
2024-02-15T07:37:00.635Z,15.32
2024-02-15T07:40:09.449Z,18.17
2024-02-15T07:43:13.394Z,18.20
2024-02-15T07:46:17.809Z,17.08
2024-02-15T07:49:21.796Z,16.25
2024-02-15T07:52:25.327Z,16.33
2024-02-15T07:55:29.394Z,14.88
2024-02-15T07:58:32.879Z,13.38
2024-02-15T08:01:36.010Z,11.13
2024-02-15T08:04:42.325Z,10.02
2024-02-15T08:07:46.497Z,10.13
2024-02-15T08:10:52.819Z,9.90
2024-02-15T08:13:55.962Z,11.07
2024-02-15T08:16:58.868Z,12.77
2024-02-15T08:20:02.006Z,14.43
2024-02-15T08:23:05.517Z,14.95
2024-02-15T08:26:08.402Z,12.43
2024-02-15T08:29:13.152Z,12.10
2024-02-15T08:32:15.863Z,9.70
2024-02-15T08:35:19.161Z,9.38
2024-02-15T08:38:23.672Z,8.35
2024-02-15T08:41:28.177Z,8.67
2024-02-15T08:44:31.036Z,8.93
2024-02-15T08:47:34.175Z,9.27
2024-02-15T08:50:37.360Z,10.05
2024-02-15T08:53:40.403Z,12.60
2024-02-15T08:56:43.506Z,11.80
2024-02-15T08:59:46.640Z,8.90
2024-02-15T09:02:54.343Z,8.70
2024-02-15T09:05:59.248Z,9.00
2024-02-15T09:09:02.719Z,9.30
2024-02-15T09:12:09.950Z,9.30
2024-02-15T09:15:13.175Z,9.15
2024-02-15T09:18:16.319Z,8.98
2024-02-15T09:21:19.941Z,8.67
2024-02-15T09:24:26.383Z,7.80
2024-02-15T09:27:29.502Z,7.32
2024-02-15T09:30:33.160Z,6.53
2024-02-15T09:33:36.009Z,5.80
2024-02-15T09:36:39.230Z,5.70
2024-02-15T09:39:42.408Z,5.90
2024-02-15T09:42:46.566Z,6.47
2024-02-15T09:45:49.905Z,6.25
2024-02-15T09:48:59.813Z,6.47
2024-02-15T09:52:04.948Z,5.30
2024-02-15T09:55:14.564Z,5.10
2024-02-15T09:58:18.555Z,5.53
2024-02-15T10:01:24.477Z,5.20
2024-02-15T10:04:28.392Z,5.28
2024-02-15T10:07:31.735Z,5.90
2024-02-15T10:10:36.882Z,5.87
2024-02-15T10:13:41.176Z,7.33
2024-02-15T10:16:45.456Z,5.95
2024-02-15T10:20:07.688Z,5.55
2024-02-15T10:23:12.335Z,5.93
2024-02-15T10:26:24.094Z,6.45
2024-02-15T10:29:27.426Z,5.53
2024-02-15T10:32:37.115Z,5.88
2024-02-15T10:35:40.689Z,5.97
2024-02-15T10:38:43.970Z,5.77
2024-02-15T10:41:48.709Z,5.60
2024-02-15T10:44:53.961Z,5.22
2024-02-15T10:47:57.171Z,5.03
2024-02-15T10:51:05.159Z,5.20
2024-02-15T10:54:14.115Z,5.47
2024-02-15T10:57:23.752Z,5.63
2024-02-15T11:00:34.919Z,5.45
2024-02-15T11:03:48.589Z,4.13
2024-02-15T11:06:53.793Z,5.03
2024-02-15T11:10:03.302Z,4.18
2024-02-15T11:13:06.878Z,4.55
2024-02-15T11:16:09.718Z,4.65
2024-02-15T11:19:38.135Z,3.87
2024-02-15T11:22:41.084Z,3.85
2024-02-15T11:25:44.303Z,3.90
2024-02-15T11:28:52.020Z,4.18
2024-02-15T11:31:56.167Z,3.77
2024-02-15T11:35:18.329Z,3.40
2024-02-15T11:38:31.313Z,3.80
2024-02-15T11:41:34.554Z,3.65
2024-02-15T11:44:37.577Z,3.50
2024-02-15T11:47:44.768Z,2.70
2024-02-15T11:50:47.876Z,2.63
2024-02-15T11:54:00.821Z,2.78
2024-02-15T11:57:11.688Z,3.63
2024-02-15T12:00:42.000Z,3.03
2024-02-15T12:04:07.333Z,3.17
2024-02-15T12:07:30.464Z,2.60
2024-02-15T12:10:52.184Z,2.08
2024-02-15T12:14:13.763Z,2.55
2024-02-15T12:17:35.391Z,4.50
2024-02-15T12:20:38.452Z,2.90
2024-02-15T12:23:42.729Z,3.20
2024-02-15T12:26:48.017Z,3.10
2024-02-15T12:29:55.363Z,2.40
2024-02-15T12:33:14.679Z,3.28
2024-02-15T12:36:21.161Z,3.07
2024-02-15T12:39:29.414Z,2.90
2024-02-15T12:42:33.693Z,3.00
2024-02-15T12:45:38.187Z,2.83
2024-02-15T12:48:43.806Z,2.60
2024-02-15T12:52:25.778Z,3.00
2024-02-15T12:55:35.376Z,3.70
2024-02-15T12:58:40.512Z,3.45
2024-02-15T13:01:44.101Z,2.60
2024-02-15T13:04:47.030Z,2.40
2024-02-15T13:07:51.952Z,2.20
2024-02-15T13:10:57.662Z,2.70
2024-02-15T13:14:01.079Z,2.05
2024-02-15T13:17:04.087Z,2.30
2024-02-15T13:20:12.899Z,2.47
2024-02-15T13:23:17.164Z,2.70
2024-02-15T13:26:21.422Z,2.10
2024-02-15T13:29:24.585Z,2.00
2024-02-15T13:32:29.573Z,2.78
2024-02-15T13:35:33.410Z,2.20
2024-02-15T13:38:38.192Z,2.13
2024-02-15T13:41:40.956Z,2.30
2024-02-15T13:44:45.852Z,2.47
2024-02-15T13:47:48.971Z,2.92
2024-02-15T13:50:55.213Z,2.38
2024-02-15T13:53:58.172Z,2.20
2024-02-15T13:57:04.380Z,2.45
2024-02-15T14:00:08.358Z,1.95
2024-02-15T14:03:17.063Z,1.40
2024-02-15T14:06:20.147Z,2.17
2024-02-15T14:09:27.302Z,2.40
2024-02-15T14:12:30.811Z,1.60
2024-02-15T14:15:42.096Z,3.50
2024-02-15T14:18:46.278Z,1.93
2024-02-15T14:21:49.519Z,2.97
2024-02-15T14:24:52.532Z,2.67
2024-02-15T14:27:57.290Z,2.17
2024-02-15T14:31:19.555Z,1.40
2024-02-15T14:34:26.326Z,1.38
2024-02-15T14:37:29.490Z,2.22
2024-02-15T14:40:47.399Z,2.27
2024-02-15T14:43:51.963Z,2.20
2024-02-15T14:46:55.089Z,3.92
2024-02-15T14:49:57.954Z,5.35
2024-02-15T14:53:00.962Z,7.33
2024-02-15T14:56:06.214Z,6.40
2024-02-15T14:59:08.920Z,4.10
2024-02-15T15:02:12.540Z,3.33
2024-02-15T15:05:34.512Z,3.17
2024-02-15T15:08:56.395Z,6.15
2024-02-15T15:12:17.784Z,4.20
2024-02-15T15:15:20.581Z,5.97
2024-02-15T15:18:23.424Z,7.20
2024-02-15T15:21:29.440Z,6.85
2024-02-15T15:24:36.110Z,9.88
2024-02-15T15:27:38.951Z,9.00
2024-02-15T15:30:41.997Z,7.65
2024-02-15T15:33:45.042Z,6.70
2024-02-15T15:36:51.180Z,7.97
2024-02-15T15:39:56.752Z,6.83
2024-02-15T15:42:59.548Z,7.82
2024-02-15T15:46:02.509Z,9.82
2024-02-15T15:49:07.228Z,10.77
2024-02-15T15:52:10.251Z,9.85
2024-02-15T15:55:13.327Z,8.20
2024-02-15T15:58:17.162Z,7.40
2024-02-15T16:01:20.568Z,6.80
2024-02-15T16:04:24.214Z,9.63
2024-02-15T16:07:27.568Z,9.25
2024-02-15T16:10:30.737Z,8.25
2024-02-15T16:13:33.537Z,7.80
2024-02-15T16:16:36.620Z,8.45
2024-02-15T16:19:39.802Z,18.93
2024-02-15T16:22:43.231Z,20.63
2024-02-15T16:25:46.288Z,19.23
2024-02-15T16:28:49.560Z,25.03
2024-02-15T16:31:52.486Z,29.42
2024-02-15T16:35:00.120Z,46.80
2024-02-15T16:38:04.200Z,39.67
2024-02-15T16:41:08.381Z,21.67
2024-02-15T16:44:12.209Z,18.33
2024-02-15T16:47:17.446Z,22.33
2024-02-15T16:50:47.903Z,28.10
2024-02-15T16:53:50.832Z,25.27
2024-02-15T16:57:04.462Z,32.05
2024-02-15T17:00:14.061Z,30.47
2024-02-15T17:03:17.912Z,29.42
2024-02-15T17:06:21.305Z,35.35
2024-02-15T17:09:24.140Z,24.05
2024-02-15T17:12:27.748Z,22.45
2024-02-15T17:15:30.872Z,22.50
2024-02-15T17:18:35.193Z,19.05
2024-02-15T17:21:42.856Z,19.53
2024-02-15T17:24:45.999Z,18.58
2024-02-15T17:27:49.604Z,15.30
2024-02-15T17:30:53.634Z,14.17
2024-02-15T17:33:56.459Z,15.75
2024-02-15T17:36:59.762Z,16.83
2024-02-15T17:40:02.625Z,17.35
2024-02-15T17:43:06.707Z,15.45
2024-02-15T17:46:09.584Z,17.15
2024-02-15T17:49:12.452Z,25.05
2024-02-15T17:52:15.230Z,28.70
2024-02-15T17:55:19.214Z,46.63
2024-02-15T17:58:22.454Z,50.33
2024-02-15T18:01:25.908Z,41.17
2024-02-15T18:04:29.516Z,23.08
2024-02-15T18:07:33.337Z,16.05
2024-02-15T18:10:36.176Z,18.67
2024-02-15T18:13:40.624Z,18.90
2024-02-15T18:16:49.502Z,18.77
2024-02-15T18:19:52.684Z,14.50
2024-02-15T18:22:56.779Z,13.10
2024-02-15T18:25:59.712Z,15.70
2024-02-15T18:29:02.767Z,15.10
2024-02-15T18:32:06.346Z,16.60
2024-02-15T18:35:13.334Z,17.27
2024-02-15T18:38:19.564Z,29.95
2024-02-15T18:41:22.436Z,45.17
2024-02-15T18:44:26.966Z,52.25
2024-02-15T18:47:30.891Z,43.83
2024-02-15T18:50:36.309Z,35.25
2024-02-15T18:53:39.302Z,31.27
2024-02-15T18:56:43.182Z,22.52
2024-02-15T18:59:46.135Z,17.13
2024-02-15T19:02:52.240Z,16.10
2024-02-15T19:05:55.182Z,16.20
2024-02-15T19:08:59.585Z,15.85
2024-02-15T19:12:02.798Z,15.13
2024-02-15T19:15:08.192Z,13.27
2024-02-15T19:18:12.150Z,16.85
2024-02-15T19:21:15.415Z,19.27
2024-02-15T19:24:18.674Z,25.13
2024-02-15T19:27:22.081Z,28.33
2024-02-15T19:30:24.993Z,32.78
2024-02-15T19:33:31.770Z,32.10
2024-02-15T19:36:40.221Z,29.42
2024-02-15T19:39:43.568Z,25.80
2024-02-15T19:42:46.934Z,23.00
2024-02-15T19:45:49.999Z,20.95
2024-02-15T19:48:53.130Z,20.90
2024-02-15T19:51:56.082Z,20.02
2024-02-15T19:54:59.629Z,17.93
2024-02-15T19:58:02.565Z,17.77
2024-02-15T20:01:05.351Z,19.27
2024-02-15T20:04:08.282Z,18.67
2024-02-15T20:07:11.465Z,21.38
2024-02-15T20:10:14.565Z,18.40
2024-02-15T20:13:17.729Z,16.90
2024-02-15T20:16:23.330Z,14.85
2024-02-15T20:19:29.319Z,17.67
2024-02-15T20:22:32.434Z,16.25
2024-02-15T20:25:35.384Z,18.80
2024-02-15T20:28:39.027Z,18.83
2024-02-15T20:31:46.341Z,19.60
2024-02-15T20:34:49.506Z,18.10
2024-02-15T20:37:52.933Z,16.88
2024-02-15T20:41:07.081Z,16.25
2024-02-15T20:44:14.177Z,14.80
2024-02-15T20:47:20.352Z,14.38
2024-02-15T20:50:23.542Z,16.10
2024-02-15T20:53:27.777Z,15.90
2024-02-15T20:56:31.143Z,16.23
2024-02-15T20:59:33.984Z,18.42
2024-02-15T21:02:37.624Z,17.25
2024-02-15T21:05:40.555Z,17.80
2024-02-15T21:08:44.900Z,18.17
2024-02-15T21:11:48.122Z,17.25
2024-02-15T21:14:50.979Z,16.73
2024-02-15T21:17:54.114Z,16.65
2024-02-15T21:20:57.342Z,17.08
2024-02-15T21:24:00.580Z,14.07
2024-02-15T21:27:03.635Z,14.37
2024-02-15T21:30:07.095Z,13.90
2024-02-15T21:33:10.374Z,12.32
2024-02-15T21:36:14.339Z,10.87
2024-02-15T21:39:17.706Z,11.02
2024-02-15T21:42:24.036Z,11.57
2024-02-15T21:45:26.929Z,11.23
2024-02-15T21:48:34.031Z,11.13
2024-02-15T21:51:37.207Z,10.85
2024-02-15T21:54:40.271Z,10.85
2024-02-15T21:57:43.283Z,10.77
2024-02-15T22:00:46.454Z,11.23
2024-02-15T22:03:49.570Z,10.63
2024-02-15T22:06:52.772Z,10.40
2024-02-15T22:09:56.230Z,9.82
2024-02-15T22:12:59.078Z,11.13
2024-02-15T22:16:02.125Z,10.13
2024-02-15T22:19:07.275Z,10.52
2024-02-15T22:22:11.396Z,10.15
2024-02-15T22:25:15.594Z,9.35
2024-02-15T22:28:19.261Z,8.63
2024-02-15T22:31:25.538Z,9.77
2024-02-15T22:34:29.770Z,9.40
2024-02-15T22:37:34.439Z,9.77
2024-02-15T22:40:37.227Z,10.35
2024-02-15T22:43:41.144Z,11.68
2024-02-15T22:46:48.371Z,11.38
2024-02-15T22:49:51.624Z,10.68
2024-02-15T22:52:54.453Z,10.68
2024-02-15T22:55:57.688Z,11.13
2024-02-15T22:59:00.396Z,9.90
2024-02-15T23:02:03.652Z,9.57
2024-02-15T23:05:09.916Z,9.65
2024-02-15T23:08:13.142Z,11.50
2024-02-15T23:11:16.862Z,10.88
2024-02-15T23:14:22.062Z,12.05
2024-02-15T23:17:28.496Z,10.88
2024-02-15T23:20:31.667Z,10.93
2024-02-15T23:23:37.964Z,10.60
2024-02-15T23:26:40.904Z,11.68
2024-02-15T23:29:44.944Z,11.33
2024-02-15T23:32:47.806Z,12.43
2024-02-15T23:36:09.459Z,14.85
2024-02-15T23:39:31.157Z,16.53
2024-02-15T23:42:34.023Z,14.70
2024-02-15T23:45:37.332Z,15.15
2024-02-15T23:48:41.289Z,13.27
2024-02-15T23:51:46.497Z,14.60
2024-02-15T23:54:49.778Z,15.02
2024-02-15T23:57:52.714Z,15.00
